Time;durP1;ratioP1;P1;durP2;ratioP2;P2;SDS_P1;SDS_P2;PMS_P1;PMS_P2;Temp;Humidity;BMP_temperature;BMP_pressure;BME280_temperature;BME280_humidity;BME280_pressure;Samples;Min_cycle;Max_cycle;Signal;HPM_P1;HPM_P2
2022/03/09 00:01:09;;;;;;;;;;;;;;;2.75;84.27;102410.13;5067567;28;19913;-77
2022/03/09 00:03:34;;;;;;;;;;;;;;;2.76;83.90;102407.25;5054135;28;20069;-76
2022/03/09 00:06:00;;;;;;;;;;;;;;;2.78;83.72;102407.94;5094151;28;19916;-77
2022/03/09 00:08:25;;;;;;;;;;;;;;;2.78;83.77;102409.75;5060195;28;20365;-77
2022/03/09 00:10:50;;;;;;;;;;;;;;;2.77;83.66;102400.00;5074645;28;20348;-77
2022/03/09 00:13:15;;;;;;;;;;;;;;;2.78;83.79;102399.84;5057606;28;20352;-78
2022/03/09 00:15:41;;;;;;;;;;;;;;;2.79;84.22;102411.44;5074680;28;20327;-77
2022/03/09 00:18:06;;;;;;;;;;;;;;;2.79;83.76;102414.13;5104007;28;20326;-77
2022/03/09 00:20:31;;;;;;;;;;;;;;;2.77;83.95;102418.88;5070884;28;19920;-77
2022/03/09 00:22:56;;;;;;;;;;;;;;;2.77;83.79;102408.94;5070804;28;19916;-77
2022/03/09 00:25:22;;;;;;;;;;;;;;;2.79;83.64;102416.84;5091725;28;19916;-78
2022/03/09 00:27:47;;;;;;;;;;;;;;;2.78;83.76;102423.22;5076189;28;19996;-77
2022/03/09 00:30:12;;;;;;;;;;;;;;;2.76;83.49;102420.72;5098604;28;19948;-77
2022/03/09 00:32:38;;;;;;;;;;;;;;;2.75;83.87;102420.91;5066761;28;20274;-77
2022/03/09 00:35:03;;;;;;;;;;;;;;;2.74;84.01;102428.16;5071888;28;20281;-77
2022/03/09 00:37:28;;;;;;;;;;;;;;;2.73;83.71;102434.56;5098096;28;20369;-77
2022/03/09 00:39:53;;;;;;;;;;;;;;;2.76;83.42;102425.28;5074152;28;19919;-77
2022/03/09 00:42:19;;;;;;;;;;;;;;;2.78;83.42;102431.31;5063877;28;19923;-77
2022/03/09 00:44:44;;;;;;;;;;;;;;;2.79;83.26;102435.69;5073005;28;20289;-77
2022/03/09 00:47:09;;;;;;;;;;;;;;;2.80;83.66;102434.66;5064155;28;19924;-77
2022/03/09 00:49:34;;;;;;;;;;;;;;;2.80;83.37;102432.78;5063149;28;20382;-78
2022/03/09 00:52:00;;;;;;;;;;;;;;;2.81;84.00;102430.94;5053681;28;19921;-77
2022/03/09 00:54:25;;;;;;;;;;;;;;;2.77;83.58;102441.25;5065220;28;19925;-77
2022/03/09 00:56:50;;;;;;;;;;;;;;;2.76;83.79;102433.38;5063814;28;19920;-77
2022/03/09 00:59:15;;;;;;;;;;;;;;;2.76;84.02;102430.66;5065525;28;19920;-77
2022/03/09 01:01:40;;;;;;;;;;;;;;;2.77;83.94;102425.09;5056102;28;19924;-77
2022/03/09 01:04:06;;;;;;;;;;;;;;;2.77;83.63;102437.72;5039862;28;19917;-77
2022/03/09 01:06:31;;;;;;;;;;;;;;;2.76;83.83;102444.13;5068009;28;19912;-77
2022/03/09 01:08:57;;;;;;;;;;;;;;;2.77;83.51;102440.41;5065700;28;19912;-78
2022/03/09 01:11:22;;;;;;;;;;;;;;;2.78;83.53;102442.06;5063150;28;19916;-78
2022/03/09 01:13:48;;;;;;;;;;;;;;;2.77;83.22;102443.94;5064585;28;20365;-77
2022/03/09 01:16:13;;;;;;;;;;;;;;;2.75;83.70;102442.44;5055797;28;19944;-77
2022/03/09 01:18:38;;;;;;;;;;;;;;;2.73;83.45;102433.69;5052212;28;19959;-77
2022/03/09 01:21:03;;;;;;;;;;;;;;;2.74;83.92;102447.00;5060365;28;19927;-78
2022/03/09 01:23:28;;;;;;;;;;;;;;;2.75;83.44;102437.88;5061611;28;19916;-77
2022/03/09 01:25:54;;;;;;;;;;;;;;;2.76;83.20;102441.44;5077945;28;19912;-77
2022/03/09 01:28:19;;;;;;;;;;;;;;;2.79;83.59;102443.78;5081978;28;19963;-77
2022/03/09 01:30:44;;;;;;;;;;;;;;;2.80;83.30;102432.78;5092441;28;19960;-78
2022/03/09 01:33:09;;;;;;;;;;;;;;;2.82;83.64;102425.38;5082809;28;19924;-78
2022/03/09 01:35:35;;;;;;;;;;;;;;;2.83;82.91;102427.03;5109275;28;19916;-77
2022/03/09 01:38:00;;;;;;;;;;;;;;;2.82;82.79;102427.25;5075243;28;19926;-77
2022/03/09 01:40:25;;;;;;;;;;;;;;;2.81;83.49;102425.56;5062828;28;19952;-77
2022/03/09 01:42:50;;;;;;;;;;;;;;;2.80;83.33;102431.97;5065842;28;19921;-77
2022/03/09 01:45:16;;;;;;;;;;;;;;;2.79;83.11;102430.31;5077344;28;20285;-77
2022/03/09 01:47:41;;;;;;;;;;;;;;;2.80;82.90;102429.28;5105004;28;19916;-77
2022/03/09 01:50:09;;;;;;;;;;;;;;;2.80;83.04;102434.66;5063392;28;20333;-77
2022/03/09 01:52:34;;;;;;;;;;;;;;;2.79;82.91;102436.53;5091232;28;19925;-78
2022/03/09 01:55:00;;;;;;;;;;;;;;;2.80;83.01;102440.88;5110102;28;20373;-78
2022/03/09 01:57:25;;;;;;;;;;;;;;;2.79;83.07;102439.22;5102912;28;20397;-78
2022/03/09 01:59:50;;;;;;;;;;;;;;;2.78;83.05;102439.38;5109584;28;20365;-77
2022/03/09 02:02:16;;;;;;;;;;;;;;;2.78;83.06;102431.31;5087979;28;19917;-77
2022/03/09 02:04:41;;;;;;;;;;;;;;;2.75;83.26;102435.19;5055486;28;20377;-77
2022/03/09 02:07:08;;;;;;;;;;;;;;;2.75;82.98;102423.59;5105060;28;19917;-77
2022/03/09 02:09:42;;;;;;;;;;;;;;;2.76;83.50;102436.88;5061453;28;19920;-77
2022/03/09 02:12:08;;;;;;;;;;;;;;;2.78;83.38;102428.59;5090918;28;20543;-77
2022/03/09 02:14:36;;;;;;;;;;;;;;;2.80;83.14;102426.56;5089355;28;20258;-77
2022/03/09 02:17:02;;;;;;;;;;;;;;;2.81;83.07;102436.31;5073344;28;20380;-77
2022/03/09 02:19:27;;;;;;;;;;;;;;;2.82;83.46;102432.63;5069600;28;20400;-77
2022/03/09 02:22:03;;;;;;;;;;;;;;;2.81;83.08;102425.56;5084058;28;19920;-77
2022/03/09 02:24:28;;;;;;;;;;;;;;;2.81;83.26;102429.09;5060725;28;20366;-77
2022/03/09 02:26:53;;;;;;;;;;;;;;;2.85;83.29;102416.09;5091944;28;19923;-78
2022/03/09 02:29:18;;;;;;;;;;;;;;;2.86;82.81;102417.75;5066139;28;19916;-77
2022/03/09 02:31:43;;;;;;;;;;;;;;;2.85;83.10;102414.25;5096445;28;19955;-77
2022/03/09 02:34:09;;;;;;;;;;;;;;;2.86;83.04;102417.75;5052185;28;19928;-77
2022/03/09 02:36:34;;;;;;;;;;;;;;;2.86;83.05;102421.31;5088592;28;20327;-77
2022/03/09 02:38:59;;;;;;;;;;;;;;;2.87;82.82;102414.06;5061842;28;20439;-77
2022/03/09 02:41:28;;;;;;;;;;;;;;;2.87;82.67;102408.69;5066257;28;19921;-77
2022/03/09 02:43:53;;;;;;;;;;;;;;;2.87;82.82;102406.81;5047682;28;19959;-78
2022/03/09 02:46:18;;;;;;;;;;;;;;;2.87;82.61;102397.91;5068580;28;19916;-77
2022/03/09 02:48:45;;;;;;;;;;;;;;;2.87;83.18;102404.13;5046897;28;19917;-77
2022/03/09 02:51:10;;;;;;;;;;;;;;;2.88;82.82;102410.34;5072348;28;19916;-77
2022/03/09 02:53:35;;;;;;;;;;;;;;;2.88;83.09;102400.41;5057633;28;19962;-77
2022/03/09 02:56:00;;;;;;;;;;;;;;;2.89;82.64;102406.63;5075604;28;20019;-77
2022/03/09 02:58:25;;;;;;;;;;;;;;;2.89;83.08;102414.69;5073637;28;20408;-77
2022/03/09 03:00:51;;;;;;;;;;;;;;;2.89;82.85;102415.56;5067576;28;20393;-77
2022/03/09 03:03:16;;;;;;;;;;;;;;;2.91;82.40;102414.53;5056875;28;19916;-77
2022/03/09 03:05:41;;;;;;;;;;;;;;;2.91;82.37;102415.38;5063232;28;20005;-78
2022/03/09 03:08:07;;;;;;;;;;;;;;;2.91;82.80;102414.53;5063207;28;19916;-77
2022/03/09 03:10:32;;;;;;;;;;;;;;;2.90;82.64;102419.09;5102623;28;19917;-77
2022/03/09 03:12:58;;;;;;;;;;;;;;;2.91;82.90;102422.63;5089890;28;19924;-78
2022/03/09 03:15:23;;;;;;;;;;;;;;;2.88;82.95;102418.44;5108384;28;19916;-77
2022/03/09 03:17:48;;;;;;;;;;;;;;;2.85;82.25;102426.88;5064855;28;19921;-78
2022/03/09 03:20:13;;;;;;;;;;;;;;;2.78;82.56;102421.41;5066648;28;19920;-78
2022/03/09 03:22:38;;;;;;;;;;;;;;;2.74;82.90;102421.94;5064778;28;19924;-78
2022/03/09 03:25:04;;;;;;;;;;;;;;;2.72;82.60;102426.66;5072531;28;19913;-78
2022/03/09 03:27:29;;;;;;;;;;;;;;;2.74;82.83;102420.06;5098010;28;19932;-78
2022/03/09 03:29:54;;;;;;;;;;;;;;;2.74;83.14;102421.94;5102703;28;19919;-78
2022/03/09 03:32:19;;;;;;;;;;;;;;;2.70;82.92;102421.47;5070990;28;19919;-77
2022/03/09 03:34:45;;;;;;;;;;;;;;;2.71;82.36;102419.59;5060917;28;19917;-77
2022/03/09 03:37:10;;;;;;;;;;;;;;;2.70;82.96;102421.47;5057465;28;19984;-77
2022/03/09 03:39:35;;;;;;;;;;;;;;;2.66;82.61;102423.66;5036586;28;20366;-77
2022/03/09 03:42:00;;;;;;;;;;;;;;;2.66;82.94;102422.81;5066112;28;20324;-77
2022/03/09 03:44:26;;;;;;;;;;;;;;;2.65;82.59;102426.56;5053571;28;20312;-77
2022/03/09 03:46:51;;;;;;;;;;;;;;;2.63;82.65;102442.03;5073623;28;20335;-77
2022/03/09 03:49:16;;;;;;;;;;;;;;;2.56;82.38;102444.59;5053577;28;20378;-77
2022/03/09 03:51:41;;;;;;;;;;;;;;;2.56;82.68;102446.47;5067164;28;19912;-77
2022/03/09 03:54:07;;;;;;;;;;;;;;;2.58;82.47;102442.56;5052255;28;19924;-77
2022/03/09 03:56:32;;;;;;;;;;;;;;;2.62;82.92;102443.91;5075274;28;19916;-77
2022/03/09 03:58:57;;;;;;;;;;;;;;;2.63;82.40;102444.72;5060835;28;20000;-77
2022/03/09 04:01:23;;;;;;;;;;;;;;;2.63;82.59;102440.19;5073126;28;19920;-77
2022/03/09 04:03:48;;;;;;;;;;;;;;;2.62;82.88;102437.69;5104653;28;20319;-77
2022/03/09 04:06:13;;;;;;;;;;;;;;;2.60;82.62;102440.53;5107394;28;19912;-77
2022/03/09 04:08:38;;;;;;;;;;;;;;;2.58;82.84;102450.66;5061405;28;20008;-77
2022/03/09 04:11:04;;;;;;;;;;;;;;;2.57;82.89;102448.97;5099966;28;19952;-77
2022/03/09 04:13:29;;;;;;;;;;;;;;;2.56;82.52;102449.16;5062225;28;19927;-77
2022/03/09 04:15:54;;;;;;;;;;;;;;;2.57;82.53;102451.69;5098833;28;19916;-77
2022/03/09 04:18:19;;;;;;;;;;;;;;;2.60;82.54;102450.47;5066404;28;19917;-77
2022/03/09 04:20:45;;;;;;;;;;;;;;;2.60;82.67;102456.69;5083123;28;19927;-78
2022/03/09 04:23:10;;;;;;;;;;;;;;;2.63;82.11;102448.25;5068851;28;19917;-77
2022/03/09 04:25:36;;;;;;;;;;;;;;;2.63;82.48;102450.13;5074486;28;19923;-77
2022/03/09 04:28:01;;;;;;;;;;;;;;;2.63;82.04;102453.66;5051996;28;19921;-77
2022/03/09 04:30:26;;;;;;;;;;;;;;;2.63;82.13;102450.94;5094300;28;19916;-77
2022/03/09 04:32:52;;;;;;;;;;;;;;;2.61;82.31;102444.91;5067721;28;19936;-77
2022/03/09 04:35:17;;;;;;;;;;;;;;;2.57;82.19;102445.47;5069811;28;20107;-77
2022/03/09 04:37:42;;;;;;;;;;;;;;;2.53;82.41;102444.13;5065326;28;20389;-77
2022/03/09 04:40:08;;;;;;;;;;;;;;;2.50;82.57;102439.94;5054235;28;19960;-77
2022/03/09 04:42:33;;;;;;;;;;;;;;;2.49;82.10;102434.75;5061662;28;19970;-77
2022/03/09 04:44:58;;;;;;;;;;;;;;;2.50;82.74;102436.41;5065126;28;19912;-77
2022/03/09 04:47:23;;;;;;;;;;;;;;;2.51;82.20;102447.03;5072541;28;19948;-77
2022/03/09 04:49:51;;;;;;;;;;;;;;;2.50;82.29;102441.81;5049192;28;20019;-77
2022/03/09 04:52:16;;;;;;;;;;;;;;;2.51;82.22;102446.16;5066163;28;19935;-77
2022/03/09 04:54:41;;;;;;;;;;;;;;;2.45;82.42;102455.78;5064504;28;20230;-77
2022/03/09 04:57:06;;;;;;;;;;;;;;;2.41;82.10;102455.31;5095962;28;20362;-77
2022/03/09 04:59:32;;;;;;;;;;;;;;;2.40;82.10;102450.09;5071585;28;19924;-77
2022/03/09 05:01:57;;;;;;;;;;;;;;;2.38;82.39;102454.84;5067296;28;20020;-77
2022/03/09 05:04:22;;;;;;;;;;;;;;;2.37;82.53;102453.16;5046205;28;19928;-77
2022/03/09 05:06:47;;;;;;;;;;;;;;;2.37;82.51;102445.06;5084290;28;19917;-77
2022/03/09 05:09:12;;;;;;;;;;;;;;;2.34;82.29;102450.81;5056750;28;20448;-77
2022/03/09 05:11:38;;;;;;;;;;;;;;;2.33;82.47;102451.84;5103248;28;19919;-77
2022/03/09 05:14:03;;;;;;;;;;;;;;;2.32;82.51;102450.16;5070997;28;19916;-78
2022/03/09 05:16:28;;;;;;;;;;;;;;;2.31;82.46;102449.31;5073556;28;19923;-77
2022/03/09 05:18:53;;;;;;;;;;;;;;;2.31;82.08;102453.88;5064752;28;19917;-77
2022/03/09 05:21:18;;;;;;;;;;;;;;;2.32;82.08;102447.47;5064991;28;19920;-77
2022/03/09 05:23:44;;;;;;;;;;;;;;;2.30;82.75;102450.34;5059585;28;19916;-77
2022/03/09 05:26:09;;;;;;;;;;;;;;;2.31;82.31;102453.88;5106415;28;19912;-77
2022/03/09 05:28:34;;;;;;;;;;;;;;;2.28;82.11;102454.22;5101050;28;19912;-77
2022/03/09 05:30:59;;;;;;;;;;;;;;;2.23;81.88;102460.13;5050574;28;19970;-78
2022/03/09 05:33:25;;;;;;;;;;;;;;;2.25;82.36;102462.66;5091003;28;19917;-77
2022/03/09 05:35:50;;;;;;;;;;;;;;;2.26;82.56;102465.16;5066205;28;19931;-77
2022/03/09 05:38:15;;;;;;;;;;;;;;;2.26;82.02;102469.72;5061746;28;20384;-76
2022/03/09 05:40:40;;;;;;;;;;;;;;;2.26;82.21;102470.53;5069111;28;20416;-76
2022/03/09 05:43:06;;;;;;;;;;;;;;;2.23;82.19;102466.34;5066275;28;19912;-76
2022/03/09 05:45:31;;;;;;;;;;;;;;;2.22;81.99;102470.06;5086680;28;19920;-76
2022/03/09 05:47:56;;;;;;;;;;;;;;;2.23;81.59;102466.34;5062621;28;20254;-76
2022/03/09 05:50:21;;;;;;;;;;;;;;;2.23;81.83;102466.34;5067223;28;20304;-76
2022/03/09 05:52:47;;;;;;;;;;;;;;;2.25;82.31;102463.50;5092711;28;20006;-78
2022/03/09 05:55:12;;;;;;;;;;;;;;;2.26;81.94;102462.47;5083748;28;19920;-78
2022/03/09 05:57:37;;;;;;;;;;;;;;;2.27;81.96;102466.84;5077149;28;19962;-78
2022/03/09 06:00:03;;;;;;;;;;;;;;;2.26;81.56;102467.00;5088469;28;19912;-78
2022/03/09 06:02:28;;;;;;;;;;;;;;;2.25;81.63;102470.72;5068829;28;19970;-78
2022/03/09 06:04:53;;;;;;;;;;;;;;;2.26;81.90;102473.22;5046682;28;19913;-78
2022/03/09 06:07:18;;;;;;;;;;;;;;;2.28;81.72;102473.06;5094562;28;19971;-77
2022/03/09 06:09:44;;;;;;;;;;;;;;;2.29;81.97;102469.34;5053671;28;19928;-77
2022/03/09 06:12:10;;;;;;;;;;;;;;;2.31;81.79;102478.94;5056456;28;19917;-77
2022/03/09 06:14:35;;;;;;;;;;;;;;;2.34;82.10;102472.34;5058448;28;20403;-77
2022/03/09 06:17:00;;;;;;;;;;;;;;;2.36;81.72;102475.72;5077170;28;20322;-78
2022/03/09 06:19:25;;;;;;;;;;;;;;;2.40;82.22;102483.25;5054937;28;19936;-77
2022/03/09 06:21:50;;;;;;;;;;;;;;;2.44;81.88;102478.34;5060377;28;19924;-76
2022/03/09 06:24:18;;;;;;;;;;;;;;;2.48;81.54;102490.41;5050722;28;20297;-76
2022/03/09 06:26:43;;;;;;;;;;;;;;;2.51;82.01;102483.84;5054644;28;19916;-76
2022/03/09 06:29:10;;;;;;;;;;;;;;;2.54;81.83;102495.13;5088726;28;19948;-76
2022/03/09 06:31:35;;;;;;;;;;;;;;;2.56;81.85;102497.63;5096202;28;19923;-75
2022/03/09 06:34:00;;;;;;;;;;;;;;;2.60;81.48;102505.16;5053235;28;19924;-76
2022/03/09 06:36:25;;;;;;;;;;;;;;;2.63;81.78;102499.41;5084024;28;19947;-76
2022/03/09 06:38:50;;;;;;;;;;;;;;;2.65;81.76;102504.63;5066518;28;19921;-76
2022/03/09 06:41:16;;;;;;;;;;;;;;;2.65;81.19;102502.78;5061068;28;19932;-75
2022/03/09 06:43:41;;;;;;;;;;;;;;;2.67;81.68;102500.75;5076817;28;19931;-76
2022/03/09 06:46:07;;;;;;;;;;;;;;;2.73;81.56;102503.72;5076208;28;19964;-76
2022/03/09 06:48:32;;;;;;;;;;;;;;;2.73;80.85;102498.34;5099203;28;19912;-76
2022/03/09 06:50:57;;;;;;;;;;;;;;;2.76;81.70;102509.59;5048345;28;19917;-75
2022/03/09 06:53:22;;;;;;;;;;;;;;;2.81;81.32;102507.22;5059345;28;20397;-75
2022/03/09 06:55:48;;;;;;;;;;;;;;;2.85;81.44;102507.69;5071327;28;19920;-75
2022/03/09 06:58:13;;;;;;;;;;;;;;;2.86;81.02;102510.22;5053414;28;20007;-75
2022/03/09 07:00:38;;;;;;;;;;;;;;;2.88;81.22;102512.72;5099604;28;19917;-75
2022/03/09 07:03:05;;;;;;;;;;;;;;;2.91;81.00;102511.50;5061495;28;19978;-75
2022/03/09 07:05:30;;;;;;;;;;;;;;;2.97;81.40;102513.47;5052016;28;19921;-75
2022/03/09 07:07:55;;;;;;;;;;;;;;;3.01;80.88;102517.50;5081076;28;19923;-75
2022/03/09 07:10:21;;;;;;;;;;;;;;;3.04;80.80;102517.13;5051209;28;19959;-76
2022/03/09 07:12:46;;;;;;;;;;;;;;;3.09;81.11;102523.66;5053290;28;19917;-76
2022/03/09 07:15:12;;;;;;;;;;;;;;;3.13;81.07;102526.00;5056558;28;19947;-76
2022/03/09 07:17:37;;;;;;;;;;;;;;;3.10;80.51;102519.94;5055028;28;19966;-76
2022/03/09 07:20:02;;;;;;;;;;;;;;;3.12;81.17;102525.16;5057080;28;19924;-76
2022/03/09 07:22:28;;;;;;;;;;;;;;;3.14;81.22;102522.25;5054324;28;19966;-76
2022/03/09 07:24:53;;;;;;;;;;;;;;;3.11;80.62;102524.31;5088350;28;19951;-76
2022/03/09 07:27:18;;;;;;;;;;;;;;;3.13;80.86;102531.38;5034292;28;19913;-75
2022/03/09 07:29:44;;;;;;;;;;;;;;;3.18;80.62;102523.59;5043170;28;19924;-75
2022/03/09 07:32:11;;;;;;;;;;;;;;;3.21;80.67;102531.31;5048566;28;19916;-76
2022/03/09 07:34:36;;;;;;;;;;;;;;;3.25;80.70;102530.78;5072149;28;19924;-76
2022/03/09 07:37:01;;;;;;;;;;;;;;;3.30;81.05;102532.91;5051556;28;20023;-75
2022/03/09 07:39:29;;;;;;;;;;;;;;;3.33;80.80;102540.66;5054084;28;19924;-76
2022/03/09 07:41:54;;;;;;;;;;;;;;;3.38;80.91;102540.91;5055135;28;19965;-75
2022/03/09 07:44:19;;;;;;;;;;;;;;;3.42;80.74;102536.84;5053606;28;19917;-75
2022/03/09 07:46:45;;;;;;;;;;;;;;;3.46;80.75;102537.31;5080269;28;19917;-75
2022/03/09 07:49:10;;;;;;;;;;;;;;;3.50;80.76;102531.38;5083554;28;19917;-75
2022/03/09 07:51:35;;;;;;;;;;;;;;;3.53;80.82;102539.09;5047326;28;19917;-76
2022/03/09 07:54:00;;;;;;;;;;;;;;;3.46;80.63;102540.00;5047028;28;19931;-75
2022/03/09 07:56:26;;;;;;;;;;;;;;;3.46;80.50;102538.13;5074719;28;20366;-76
2022/03/09 07:58:51;;;;;;;;;;;;;;;3.48;80.37;102541.50;5053787;28;20524;-76
2022/03/09 08:01:16;;;;;;;;;;;;;;;3.54;80.38;102546.16;5065881;28;20254;-76
2022/03/09 08:03:41;;;;;;;;;;;;;;;3.61;80.34;102545.44;5091341;28;20277;-76
2022/03/09 08:06:07;;;;;;;;;;;;;;;3.67;80.26;102544.69;5055106;28;19956;-76
2022/03/09 08:08:32;;;;;;;;;;;;;;;3.70;80.34;102542.44;5081648;28;19921;-76
2022/03/09 08:10:57;;;;;;;;;;;;;;;3.72;80.29;102548.50;5048285;28;19966;-75
2022/03/09 08:13:22;;;;;;;;;;;;;;;3.80;80.08;102547.59;5065774;28;20329;-76
2022/03/09 08:15:47;;;;;;;;;;;;;;;3.89;79.92;102538.38;5062960;28;19921;-76
2022/03/09 08:18:13;;;;;;;;;;;;;;;3.95;79.85;102545.72;5105736;28;19964;-75
2022/03/09 08:20:38;;;;;;;;;;;;;;;3.98;79.83;102542.66;5060128;28;20393;-75
2022/03/09 08:23:03;;;;;;;;;;;;;;;3.98;79.81;102553.47;5054710;28;19923;-75
2022/03/09 08:25:28;;;;;;;;;;;;;;;3.89;79.72;102549.16;5049375;28;19932;-76
2022/03/09 08:27:54;;;;;;;;;;;;;;;3.77;79.80;102546.09;5049598;28;19962;-75
2022/03/09 08:30:20;;;;;;;;;;;;;;;3.68;79.65;102540.97;5054166;28;19916;-76
2022/03/09 08:32:45;;;;;;;;;;;;;;;3.59;79.66;102544.78;5050790;28;19917;-76
2022/03/09 08:35:10;;;;;;;;;;;;;;;3.50;79.76;102547.56;5045706;28;19975;-76
2022/03/09 08:37:35;;;;;;;;;;;;;;;3.46;79.77;102554.31;5054744;28;19917;-75
2022/03/09 08:40:01;;;;;;;;;;;;;;;3.45;79.85;102555.34;5057290;28;20381;-75
2022/03/09 08:42:26;;;;;;;;;;;;;;;3.41;79.93;102564.84;5044239;28;20494;-75
2022/03/09 08:44:51;;;;;;;;;;;;;;;3.43;79.79;102570.03;5046214;28;19927;-76
2022/03/09 08:47:16;;;;;;;;;;;;;;;3.49;79.71;102569.28;5045040;28;20080;-75
2022/03/09 08:49:42;;;;;;;;;;;;;;;3.52;79.83;102568.97;5075305;28;19933;-76
2022/03/09 08:52:07;;;;;;;;;;;;;;;3.54;79.60;102567.72;5055039;28;19917;-75
2022/03/09 08:54:33;;;;;;;;;;;;;;;3.55;79.21;102564.03;5058150;28;20401;-75
2022/03/09 08:56:58;;;;;;;;;;;;;;;3.59;79.42;102563.66;5053390;28;19917;-75
2022/03/09 08:59:23;;;;;;;;;;;;;;;3.65;79.88;102568.31;5056612;28;19936;-76
2022/03/09 09:01:48;;;;;;;;;;;;;;;3.71;79.48;102567.56;5041966;28;20428;-75
2022/03/09 09:04:16;;;;;;;;;;;;;;;3.70;79.35;102565.91;5051128;28;19917;-75
2022/03/09 09:06:41;;;;;;;;;;;;;;;3.72;79.23;102566.56;5055880;28;19966;-76
2022/03/09 09:09:06;;;;;;;;;;;;;;;3.79;79.49;102567.47;5086253;28;19917;-75
2022/03/09 09:11:32;;;;;;;;;;;;;;;3.89;79.45;102580.72;5078979;28;20050;-76
2022/03/09 09:13:57;;;;;;;;;;;;;;;3.97;79.05;102573.34;5054164;28;19958;-75
2022/03/09 09:16:22;;;;;;;;;;;;;;;4.04;78.96;102580.69;5054369;28;19921;-76
2022/03/09 09:18:47;;;;;;;;;;;;;;;4.10;78.94;102588.06;5079663;28;20046;-75
2022/03/09 09:21:12;;;;;;;;;;;;;;;4.12;78.62;102592.25;5038560;28;19928;-76
2022/03/09 09:23:39;;;;;;;;;;;;;;;4.16;78.90;102584.63;5052996;28;19964;-75
2022/03/09 09:26:04;;;;;;;;;;;;;;;4.22;78.68;102586.56;5043698;28;19917;-75
2022/03/09 09:28:30;;;;;;;;;;;;;;;4.27;78.63;102589.56;5050362;28;19972;-76
2022/03/09 09:30:55;;;;;;;;;;;;;;;4.33;78.61;102586.09;5086661;28;20007;-76
2022/03/09 09:33:20;;;;;;;;;;;;;;;4.34;78.49;102590.47;5067838;28;19923;-76
2022/03/09 09:35:47;;;;;;;;;;;;;;;4.30;78.23;102591.88;5098032;28;20007;-76
2022/03/09 09:38:13;;;;;;;;;;;;;;;4.28;78.46;102591.22;5061818;28;19920;-76
2022/03/09 09:40:43;;;;;;;;;;;;;;;4.30;78.25;102589.16;5062352;28;19923;-76
2022/03/09 09:43:12;;;;;;;;;;;;;;;4.21;78.33;102590.31;5092226;28;20380;-76
2022/03/09 09:45:37;;;;;;;;;;;;;;;4.20;78.11;102588.59;5064581;28;20015;-77
2022/03/09 09:48:03;;;;;;;;;;;;;;;4.15;78.31;102586.50;5089808;28;20007;-76
2022/03/09 09:50:28;;;;;;;;;;;;;;;4.17;78.31;102587.16;5072968;28;20069;-76
2022/03/09 09:52:53;;;;;;;;;;;;;;;4.14;78.12;102594.75;5097293;28;19916;-76
2022/03/09 09:55:18;;;;;;;;;;;;;;;4.13;78.07;102593.94;5109999;28;20391;-76
2022/03/09 09:57:46;;;;;;;;;;;;;;;4.10;78.39;102588.91;5051329;28;20444;-76
2022/03/09 10:00:12;;;;;;;;;;;;;;;4.08;78.37;102590.13;5092861;28;19957;-77
2022/03/09 10:02:37;;;;;;;;;;;;;;;4.08;78.03;102592.81;5072839;28;19916;-76
2022/03/09 10:05:03;;;;;;;;;;;;;;;4.05;78.35;102587.78;5103679;28;19920;-76
2022/03/09 10:07:28;;;;;;;;;;;;;;;4.08;78.15;102590.13;5065187;28;19916;-76
2022/03/09 10:09:54;;;;;;;;;;;;;;;4.08;78.31;102582.84;5076532;28;19912;-75
2022/03/09 10:12:28;;;;;;;;;;;;;;;4.11;78.04;102589.75;5067385;28;19917;-75
2022/03/09 10:14:54;;;;;;;;;;;;;;;4.13;78.21;102598.50;5077235;28;20286;-75
2022/03/09 10:17:25;;;;;;;;;;;;;;;4.15;78.14;102601.84;5066115;28;19916;-75
2022/03/09 10:19:52;;;;;;;;;;;;;;;4.18;78.09;102591.50;5107560;28;21193;-75
2022/03/09 10:22:26;;;;;;;;;;;;;;;4.19;77.90;102592.34;5062731;28;19924;-75
2022/03/09 10:24:52;;;;;;;;;;;;;;;4.25;77.71;102591.59;5062882;28;19923;-75
2022/03/09 10:27:36;;;;;;;;;;;;;;;4.30;77.83;102596.44;5058969;28;20305;-76
2022/03/09 10:30:09;;;;;;;;;;;;;;;4.33;77.71;102602.28;5105666;28;20321;-75
2022/03/09 10:32:43;;;;;;;;;;;;;;;4.38;77.67;102607.97;5082192;28;19917;-76
2022/03/09 10:35:09;;;;;;;;;;;;;;;4.48;77.43;102601.47;5083745;28;19916;-76
2022/03/09 10:37:37;;;;;;;;;;;;;;;4.55;77.40;102607.75;5061168;28;19970;-76
2022/03/09 10:40:12;;;;;;;;;;;;;;;4.62;77.29;102603.28;5075937;28;20264;-77
2022/03/09 10:42:38;;;;;;;;;;;;;;;4.66;77.21;102596.47;5059778;28;19921;-76
2022/03/09 10:45:04;;;;;;;;;;;;;;;4.72;77.19;102602.97;5109223;28;19919;-76
2022/03/09 10:47:55;;;;;;;;;;;;;;;4.71;76.91;102595.91;5066146;28;19952;-75
2022/03/09 10:50:21;;;;;;;;;;;;;;;4.67;77.12;102606.28;5074646;28;19912;-76
2022/03/09 10:52:48;;;;;;;;;;;;;;;4.80;77.09;102606.44;5057433;28;20273;-76
2022/03/09 10:55:23;;;;;;;;;;;;;;;4.94;76.99;102599.28;5075873;28;19917;-75
2022/03/09 10:57:49;;;;;;;;;;;;;;;5.11;76.71;102598.00;5056228;28;19916;-75
2022/03/09 11:00:14;;;;;;;;;;;;;;;5.25;76.69;102601.69;5076078;28;19919;-74
2022/03/09 11:02:50;;;;;;;;;;;;;;;5.37;76.45;102595.75;5092928;28;20384;-75
2022/03/09 11:05:20;;;;;;;;;;;;;;;5.44;76.33;102602.06;5068309;28;19916;-75
2022/03/09 11:07:47;;;;;;;;;;;;;;;5.58;76.17;102606.53;5069710;28;19966;-75
2022/03/09 11:10:13;;;;;;;;;;;;;;;5.64;76.13;102608.47;5075919;28;20041;-75
2022/03/09 11:12:38;;;;;;;;;;;;;;;5.77;75.93;102597.75;5059540;28;19924;-75
2022/03/09 11:15:03;;;;;;;;;;;;;;;5.91;75.96;102597.84;5074013;28;20300;-75
2022/03/09 11:17:29;;;;;;;;;;;;;;;5.94;75.50;102597.47;5060326;28;19917;-76
2022/03/09 11:19:54;;;;;;;;;;;;;;;6.04;75.63;102599.81;5104202;28;19972;-75
2022/03/09 11:22:19;;;;;;;;;;;;;;;6.16;75.41;102592.81;5069853;28;19916;-76
2022/03/09 11:24:44;;;;;;;;;;;;;;;6.28;75.42;102583.09;5075269;28;19951;-76
2022/03/09 11:27:10;;;;;;;;;;;;;;;6.44;75.12;102576.50;5068556;28;19916;-76
2022/03/09 11:29:35;;;;;;;;;;;;;;;6.48;74.92;102582.34;5108216;28;19920;-76
2022/03/09 11:32:01;;;;;;;;;;;;;;;6.66;74.82;102574.50;5062614;28;19928;-76
2022/03/09 11:34:30;;;;;;;;;;;;;;;6.73;74.49;102569.06;5065313;28;20330;-76
2022/03/09 11:36:59;;;;;;;;;;;;;;;6.65;73.46;102581.75;5058933;28;20290;-76
2022/03/09 11:39:24;;;;;;;;;;;;;;;6.55;72.84;102584.03;5107574;28;19919;-76
2022/03/09 11:41:57;;;;;;;;;;;;;;;6.31;71.80;102589.97;5063443;28;19917;-76
2022/03/09 11:44:24;;;;;;;;;;;;;;;6.07;70.74;102584.00;5080262;28;20381;-76
2022/03/09 11:46:59;;;;;;;;;;;;;;;5.82;70.11;102589.03;5066388;28;20268;-76
2022/03/09 11:49:41;;;;;;;;;;;;;;;5.65;69.95;102587.66;5048847;28;20373;-76
2022/03/09 11:52:09;;;;;;;;;;;;;;;5.61;69.94;102589.09;5064969;28;19917;-75
2022/03/09 11:54:46;;;;;;;;;;;;;;;5.68;69.75;102582.69;5074907;28;20003;-76
2022/03/09 11:57:12;;;;;;;;;;;;;;;5.76;69.59;102590.66;5065960;28;19921;-76
2022/03/09 11:59:37;;;;;;;;;;;;;;;5.88;69.44;102599.06;5074593;28;19912;-76
2022/03/09 12:02:07;;;;;;;;;;;;;;;5.91;69.34;102597.84;5065062;28;20399;-76
2022/03/09 12:04:42;;;;;;;;;;;;;;;5.95;69.36;102602.69;5070371;28;19921;-76
2022/03/09 12:07:07;;;;;;;;;;;;;;;5.99;69.15;102605.84;5047630;28;20444;-76
2022/03/09 12:10:02;;;;;;;;;;;;;;;6.10;69.14;102597.16;5097277;28;19916;-76
2022/03/09 12:12:28;;;;;;;;;;;;;;;6.42;68.76;102602.94;5066634;28;20289;-76
2022/03/09 12:15:02;;;;;;;;;;;;;;;6.56;68.65;102599.25;5071504;28;19923;-76
2022/03/09 12:17:28;;;;;;;;;;;;;;;6.77;68.16;102602.88;5063434;28;20007;-76
2022/03/09 12:20:12;;;;;;;;;;;;;;;6.80;67.68;102618.75;5103201;28;20104;-76
2022/03/09 12:22:55;;;;;;;;;;;;;;;6.49;66.57;102611.94;5060974;28;19917;-76
2022/03/09 12:25:39;;;;;;;;;;;;;;;6.36;66.62;102611.88;5072820;28;19918;-76
2022/03/09 12:28:23;;;;;;;;;;;;;;;6.27;66.31;102613.06;5071466;28;20400;-76
2022/03/09 12:30:52;;;;;;;;;;;;;;;6.06;65.57;102617.56;5062537;28;19917;-76
2022/03/09 12:33:38;;;;;;;;;;;;;;;6.05;65.88;102613.16;5098166;28;19916;-77
2022/03/09 12:36:13;;;;;;;;;;;;;;;6.15;65.73;102610.94;5073466;28;19917;-77
2022/03/09 12:38:39;;;;;;;;;;;;;;;6.18;65.74;102605.09;5067136;28;19946;-76
2022/03/09 12:41:04;;;;;;;;;;;;;;;6.44;65.86;102598.19;5106023;28;20050;-76
2022/03/09 12:43:48;;;;;;;;;;;;;;;6.83;65.81;102592.06;5068874;28;19959;-76